Thunder radar more information blitzortung!


Radar de pluja more information rain snow radar


Visita la nostra xarxa de llocs de meteo:

Template documentation
and downloads

And another site



Extreme low temperature From: 13-12-2017 09:00 Until: 09:59 warning for: Extreme low temperature Level: Yellow info button

Pagina Historial Weather Underground text

Diari Resum Marc 7, 2016 Unitats:  Mètric    Imperial   Tant
« Previous Dia
SegĂźent Dia »
Diari Setmana Mensual Anual Personalitzada
  Maxima: Minima: Media:
Temperatura: 15.3 °C 4.3 °C 10.6 °C
Punt de rosada: 2.9 °C -3.8 °C 0.1 °C
Humitat: 57 % 39 % 49 %
Wind Speed: 18.5 km/h 0.0 km/h 6 km/h
RĂ fegues de vent: 18.5 km/h - -
Vent:- - SE
Pression baro: 1010.0 hPa 1003.9 hPa -
Precipitacions: 0.0 mm    
Historical Graphs
 
 
Dades de taula per Marc 7, 2016
Temps Temperatura Punt de rosada Pression baro Vent Wind Speed RĂ fegues de vent Humitat Rainfall Rate (Hourly)
01:30 4.3 °C -3.7 °C 1006.0 hPa Calm     56 % 0.0 mm
01:40 4.5 °C -3.6 °C 1006.0 hPa Calm   1.6 km/h 56 % 0.0 mm
01:50 4.7 °C -3.1 °C 1006.0 hPa West 1.6 km/h 3.2 km/h 57 % 0.0 mm
02:00 4.8 °C -3.0 °C 1006.0 hPa Calm   1.6 km/h 57 % 0.0 mm
02:10 4.9 °C -2.9 °C 1006.0 hPa Calm     57 % 0.0 mm
02:20 4.9 °C -2.9 °C 1006.0 hPa Calm     57 % 0.0 mm
02:30 5.0 °C -2.8 °C 1006.0 hPa Calm   1.6 km/h 57 % 0.0 mm
02:40 5.7 °C -2.2 °C 1006.0 hPa Calm   1.6 km/h 57 % 0.0 mm
02:50 6.3 °C -1.8 °C 1006.0 hPa NE 3.2 km/h 6.4 km/h 56 % 0.0 mm
03:00 6.4 °C -1.8 °C 1006.0 hPa NE 4.8 km/h 6.4 km/h 56 % 0.0 mm
03:10 6.3 °C -1.8 °C 1006.0 hPa NE 3.2 km/h 6.4 km/h 56 % 0.0 mm
03:20 6.3 °C -1.8 °C 1006.0 hPa NE 4.8 km/h 8.0 km/h 56 % 0.0 mm
03:30 6.3 °C -1.8 °C 1006.0 hPa NE 4.8 km/h 8.0 km/h 56 % 0.0 mm
03:40 7.6 °C -0.9 °C 1006.0 hPa NE 4.8 km/h 4.8 km/h 55 % 0.0 mm
03:50 7.9 °C -0.8 °C 1005.0 hPa NNE 4.8 km/h 4.8 km/h 54 % 0.0 mm
04:00 8.3 °C -0.5 °C 1006.0 hPa NE 3.2 km/h 6.4 km/h 54 % 0.0 mm
04:10 8.5 °C -0.6 °C 1006.0 hPa NE 3.2 km/h 6.4 km/h 53 % 0.0 mm
04:20 8.9 °C -0.2 °C 1006.0 hPa NE 1.6 km/h 3.2 km/h 53 % 0.0 mm
04:30 9.1 °C 0.0 °C 1006.0 hPa NE 3.2 km/h 6.4 km/h 53 % 0.0 mm
04:40 9.6 °C 0.2 °C 1006.0 hPa NE 1.6 km/h 1.6 km/h 52 % 0.0 mm
04:50 9.4 °C 0.0 °C 1006.0 hPa SSE 1.6 km/h 6.4 km/h 52 % 0.0 mm
10:52 5.5 °C -3.8 °C 1008.0 hPa WSW 1.9 km/h   51 % 0.0 mm
10:57 10.0 °C 0.6 °C 1006.0 hPa South 5.6 km/h 5.8 km/h 52 % 0.0 mm
11:07 10.4 °C 0.9 °C 1006.0 hPa ENE 9.3 km/h 9.3 km/h 52 % 0.0 mm
11:12 10.0 °C 0.3 °C 1006.0 hPa ENE 7.4 km/h 7.4 km/h 51 % 0.0 mm
11:17 10.2 °C 0.5 °C 1006.0 hPa NE 7.4 km/h 7.4 km/h 51 % 0.0 mm
11:22 10.2 °C 0.5 °C 1006.0 hPa ENE 5.0 km/h 5.0 km/h 51 % 0.0 mm
11:27 10.6 °C 0.9 °C 1006.0 hPa NE 7.4 km/h 7.4 km/h 51 % 0.0 mm
11:32 10.6 °C 0.9 °C 1006.0 hPa ESE 9.3 km/h 9.3 km/h 51 % 0.0 mm
11:37 10.6 °C 0.9 °C 1006.0 hPa SW 5.6 km/h 5.6 km/h 51 % 0.0 mm
11:42 10.6 °C 0.9 °C 1005.0 hPa West 7.4 km/h 7.4 km/h 51 % 0.0 mm
11:47 10.6 °C 0.9 °C 1005.0 hPa NNE 9.3 km/h 9.3 km/h 51 % 0.0 mm
11:52 10.6 °C 0.9 °C 1005.0 hPa ENE 5.6 km/h 5.6 km/h 51 % 0.0 mm
11:57 12.0 °C 1.9 °C 1005.0 hPa SW 3.7 km/h 3.7 km/h 50 % 0.0 mm
12:02 12.0 °C 1.9 °C 1005.0 hPa SW 9.5 km/h 9.5 km/h 50 % 0.0 mm
12:07 12.0 °C 1.9 °C 1005.0 hPa WNW 5.6 km/h 5.6 km/h 50 % 0.0 mm
12:12 13.1 °C 2.1 °C 1005.0 hPa NNW 13.0 km/h 13.0 km/h 47 % 0.0 mm
12:17 13.4 °C 2.9 °C 1005.0 hPa WSW 6.9 km/h 6.9 km/h 49 % 0.0 mm
12:22 13.8 °C 2.9 °C 1005.0 hPa West 3.7 km/h 3.7 km/h 48 % 0.0 mm
12:27 13.9 °C 2.8 °C 1005.0 hPa SW 11.1 km/h 11.1 km/h 47 % 0.0 mm
12:37 13.8 °C 2.1 °C 1005.0 hPa WSW 9.5 km/h 9.5 km/h 45 % 0.0 mm
12:47 13.8 °C 2.1 °C 1003.9 hPa WNW 5.6 km/h 5.6 km/h 45 % 0.0 mm
12:52 13.9 °C 2.2 °C 1003.9 hPa West 11.1 km/h 11.1 km/h 45 % 0.0 mm
12:57 13.9 °C 1.8 °C 1003.9 hPa WSW 9.3 km/h 9.3 km/h 44 % 0.0 mm
13:02 14.2 °C 2.1 °C 1003.9 hPa SW 9.3 km/h 9.3 km/h 44 % 0.0 mm
13:07 14.2 °C 1.8 °C 1003.9 hPa SW 16.7 km/h 16.7 km/h 43 % 0.0 mm
13:12 14.6 °C 2.2 °C 1003.9 hPa WSW 7.4 km/h 7.4 km/h 43 % 0.0 mm
13:17 14.6 °C 1.8 °C 1003.9 hPa East 7.4 km/h 7.4 km/h 42 % 0.0 mm
13:22 15.3 °C 2.8 °C 1003.9 hPa SW 5.6 km/h 5.6 km/h 43 % 0.0 mm
13:27 14.9 °C 2.1 °C 1003.9 hPa WSW 7.4 km/h 7.4 km/h 42 % 0.0 mm
13:32 15.1 °C 1.9 °C 1003.9 hPa West 9.3 km/h 9.3 km/h 41 % 0.0 mm
13:37 14.5 °C 1.1 °C 1003.9 hPa WSW 11.1 km/h 11.1 km/h 40 % 0.0 mm
13:42 14.7 °C 1.2 °C 1003.9 hPa WSW 16.7 km/h 16.7 km/h 40 % 0.0 mm
13:47 15.2 °C 1.7 °C 1003.9 hPa SSW 9.3 km/h 9.3 km/h 40 % 0.0 mm
13:57 15.3 °C 1.8 °C 1003.9 hPa SSW 9.3 km/h 9.3 km/h 40 % 0.0 mm
14:02 15.1 °C 1.2 °C 1003.9 hPa SW 9.5 km/h 9.5 km/h 39 % 0.0 mm
14:07 15.0 °C 1.5 °C 1003.9 hPa West 7.6 km/h 7.6 km/h 40 % 0.0 mm
14:17 14.2 °C 0.8 °C 1003.9 hPa SW 5.3 km/h 5.3 km/h 40 % 0.0 mm
14:22 14.1 °C 0.7 °C 1003.9 hPa WNW 7.4 km/h 7.4 km/h 40 % 0.0 mm
14:27 14.3 °C 0.9 °C 1003.9 hPa WSW 5.8 km/h 5.8 km/h 40 % 0.0 mm
14:32 14.2 °C 0.8 °C 1003.9 hPa West 7.4 km/h 7.4 km/h 40 % 0.0 mm
14:37 14.2 °C 0.8 °C 1003.9 hPa West 7.4 km/h 7.4 km/h 40 % 0.0 mm
14:42 14.1 °C 0.7 °C 1003.9 hPa WSW 9.3 km/h 9.3 km/h 40 % 0.0 mm
14:47 14.0 °C 0.9 °C 1003.9 hPa SW 5.6 km/h 5.6 km/h 41 % 0.0 mm
14:52 14.3 °C 1.2 °C 1003.9 hPa WSW 9.7 km/h 9.7 km/h 41 % 0.0 mm
14:57 14.2 °C 1.1 °C 1003.9 hPa WSW 9.3 km/h 9.3 km/h 41 % 0.0 mm
15:02 14.4 °C 1.3 °C 1003.9 hPa SW 6.1 km/h 6.1 km/h 41 % 0.0 mm
15:07 14.0 °C 0.9 °C 1003.9 hPa SW 9.3 km/h 9.3 km/h 41 % 0.0 mm
15:12 13.8 °C 0.8 °C 1003.9 hPa West 11.1 km/h 11.1 km/h 41 % 0.0 mm
15:17 13.6 °C 0.6 °C 1003.9 hPa SW 7.4 km/h 7.4 km/h 41 % 0.0 mm
15:22 13.7 °C 1.0 °C 1003.9 hPa SW 3.7 km/h 3.7 km/h 42 % 0.0 mm
15:27 13.7 °C 1.0 °C 1003.9 hPa WSW 5.3 km/h 5.3 km/h 42 % 0.0 mm
15:32 13.7 °C 1.0 °C 1003.9 hPa WSW 3.7 km/h 3.7 km/h 42 % 0.0 mm
15:37 13.6 °C 0.9 °C 1003.9 hPa SW 7.4 km/h 7.4 km/h 42 % 0.0 mm
15:42 13.8 °C 1.1 °C 1003.9 hPa WSW 11.1 km/h 11.1 km/h 42 % 0.0 mm
15:47 13.9 °C 1.2 °C 1003.9 hPa WSW 3.9 km/h 3.9 km/h 42 % 0.0 mm
15:52 14.4 °C 1.6 °C 1003.9 hPa WNW 5.6 km/h 5.6 km/h 42 % 0.0 mm
15:57 14.5 °C 1.7 °C 1003.9 hPa NNW 1.9 km/h   42 % 0.0 mm
16:02 14.4 °C 1.6 °C 1003.9 hPa SSW 9.0 km/h 9.0 km/h 42 % 0.0 mm
16:07 14.0 °C 0.9 °C 1003.9 hPa WSW 7.4 km/h 7.4 km/h 41 % 0.0 mm
16:12 14.1 °C 1.4 °C 1005.0 hPa West 3.7 km/h 3.7 km/h 42 % 0.0 mm
16:17 14.1 °C 1.4 °C 1005.0 hPa WSW 3.7 km/h 3.7 km/h 42 % 0.0 mm
16:22 14.0 °C 1.3 °C 1005.0 hPa SW 3.7 km/h 3.7 km/h 42 % 0.0 mm
16:27 13.7 °C 1.0 °C 1005.0 hPa NNE 7.4 km/h 7.4 km/h 42 % 0.0 mm
16:32 13.0 °C 0.4 °C 1005.0 hPa East 7.4 km/h 7.4 km/h 42 % 0.0 mm
16:37 12.6 °C 0.3 °C 1005.0 hPa ENE 14.0 km/h 14.0 km/h 43 % 0.0 mm
16:42 12.5 °C 0.2 °C 1005.0 hPa ESE 13.0 km/h 13.0 km/h 43 % 0.0 mm
16:47 12.3 °C 0.4 °C 1005.0 hPa ENE 11.1 km/h 11.1 km/h 44 % 0.0 mm
16:52 12.1 °C 0.2 °C 1005.0 hPa ESE 11.1 km/h 11.1 km/h 44 % 0.0 mm
16:57 12.0 °C 0.4 °C 1006.0 hPa East 18.5 km/h 18.5 km/h 45 % 0.0 mm
17:02 11.8 °C 0.2 °C 1006.0 hPa ENE 11.1 km/h 11.1 km/h 45 % 0.0 mm
17:07 11.7 °C 0.4 °C 1006.0 hPa North 9.7 km/h 9.7 km/h 46 % 0.0 mm
17:12 11.6 °C 0.3 °C 1005.0 hPa East 5.6 km/h 5.6 km/h 46 % 0.0 mm
17:17 11.6 °C 0.3 °C 1005.0 hPa ESE 9.3 km/h 9.3 km/h 46 % 0.0 mm
17:22 11.5 °C 0.3 °C 1005.0 hPa ESE 9.3 km/h 9.3 km/h 46 % 0.0 mm
17:27 11.5 °C 0.6 °C 1006.0 hPa ENE 3.7 km/h 3.7 km/h 47 % 0.0 mm
17:32 11.5 °C 0.6 °C 1006.0 hPa ENE 5.3 km/h 5.3 km/h 47 % 0.0 mm
17:37 11.5 °C 0.6 °C 1006.0 hPa East 9.3 km/h 9.3 km/h 47 % 0.0 mm
17:42 11.4 °C 0.5 °C 1006.0 hPa NNE 5.8 km/h 5.8 km/h 47 % 0.0 mm
17:47 11.3 °C 0.7 °C 1006.0 hPa East 9.3 km/h 9.3 km/h 48 % 0.0 mm
17:52 11.3 °C 0.7 °C 1006.0 hPa East 7.9 km/h 7.9 km/h 48 % 0.0 mm
17:57 11.3 °C 0.7 °C 1006.0 hPa ESE 6.4 km/h 6.4 km/h 48 % 0.0 mm
18:02 11.2 °C 0.6 °C 1006.0 hPa NNE 9.5 km/h 9.5 km/h 48 % 0.0 mm
18:12 11.1 °C 0.8 °C 1006.0 hPa ENE 9.3 km/h 9.3 km/h 49 % 0.0 mm
18:17 11.1 °C 0.8 °C 1006.0 hPa ESE 11.1 km/h 11.1 km/h 49 % 0.0 mm
18:22 11.0 °C 0.7 °C 1006.0 hPa East 9.3 km/h 9.3 km/h 49 % 0.0 mm
18:27 11.0 °C 0.7 °C 1006.0 hPa ENE 9.3 km/h 9.3 km/h 49 % 0.0 mm
18:32 11.0 °C 0.7 °C 1006.0 hPa East 9.3 km/h 9.3 km/h 49 % 0.0 mm
18:37 10.9 °C 0.6 °C 1006.0 hPa East 9.3 km/h 9.3 km/h 49 % 0.0 mm
18:42 10.9 °C 0.9 °C 1006.0 hPa ESE 7.6 km/h 7.6 km/h 50 % 0.0 mm
18:47 10.8 °C 0.8 °C 1006.0 hPa ESE 13.0 km/h 13.0 km/h 50 % 0.0 mm
18:52 10.8 °C 0.8 °C 1006.0 hPa NE 11.1 km/h 11.1 km/h 50 % 0.0 mm
18:57 10.7 °C 0.7 °C 1006.0 hPa ENE 9.3 km/h 9.3 km/h 50 % 0.0 mm
19:02 10.6 °C 0.6 °C 1006.0 hPa East 9.3 km/h 9.3 km/h 50 % 0.0 mm
19:07 10.5 °C 0.5 °C 1006.0 hPa ENE 13.0 km/h 13.0 km/h 50 % 0.0 mm
19:12 10.4 °C 0.4 °C 1007.0 hPa East 11.4 km/h 11.4 km/h 50 % 0.0 mm
19:17 10.4 °C 0.7 °C 1007.0 hPa ESE 9.3 km/h 9.3 km/h 51 % 0.0 mm
19:22 10.3 °C 0.6 °C 1007.0 hPa ESE 9.3 km/h 9.3 km/h 51 % 0.0 mm
19:27 10.2 °C 0.5 °C 1007.0 hPa ENE 7.4 km/h 7.4 km/h 51 % 0.0 mm
19:32 10.2 °C 0.5 °C 1007.0 hPa NNE 5.6 km/h 5.6 km/h 51 % 0.0 mm
19:37 10.1 °C 0.4 °C 1007.0 hPa NNE 5.6 km/h 5.6 km/h 51 % 0.0 mm
19:42 9.9 °C 0.2 °C 1007.0 hPa ENE 5.6 km/h 5.8 km/h 51 % 0.0 mm
19:47 9.6 °C -0.1 °C 1007.0 hPa NNE 7.4 km/h 7.4 km/h 51 % 0.0 mm
19:52 9.5 °C -0.2 °C 1007.0 hPa NE 7.4 km/h 7.4 km/h 51 % 0.0 mm
19:57 9.3 °C -0.3 °C 1008.0 hPa ENE 7.4 km/h 7.4 km/h 51 % 0.0 mm
20:02 9.2 °C -0.4 °C 1008.0 hPa NE 5.6 km/h 5.6 km/h 51 % 0.0 mm
20:07 9.2 °C -0.4 °C 1008.0 hPa NNE 4.7 km/h 4.7 km/h 51 % 0.0 mm
20:12 9.2 °C -0.4 °C 1008.0 hPa ENE 7.4 km/h 7.4 km/h 51 % 0.0 mm
20:17 9.2 °C -0.4 °C 1008.0 hPa NE 5.6 km/h 5.6 km/h 51 % 0.0 mm
20:22 9.2 °C -0.4 °C 1008.0 hPa ENE 3.7 km/h 3.7 km/h 51 % 0.0 mm
20:27 9.2 °C -0.4 °C 1008.0 hPa NNE 5.6 km/h 5.6 km/h 51 % 0.0 mm
20:37 9.2 °C -0.4 °C 1008.0 hPa ENE 7.9 km/h 7.9 km/h 51 % 0.0 mm
20:42 9.2 °C -0.4 °C 1007.0 hPa NE 7.4 km/h 7.4 km/h 51 % 0.0 mm
20:47 8.6 °C -1.0 °C 1007.0 hPa ENE 5.6 km/h 5.6 km/h 51 % 0.0 mm
20:52 8.6 °C -1.0 °C 1007.0 hPa NE 5.6 km/h 5.6 km/h 51 % 0.0 mm
20:57 8.6 °C -1.0 °C 1008.0 hPa NE 3.7 km/h 3.7 km/h 51 % 0.0 mm
21:02 8.6 °C -1.0 °C 1008.0 hPa North 1.9 km/h 1.9 km/h 51 % 0.0 mm
21:07 8.6 °C -1.0 °C 1008.0 hPa Calm     51 % 0.0 mm
21:12 8.6 °C -1.0 °C 1008.0 hPa NNE 1.9 km/h   51 % 0.0 mm
21:17 8.6 °C -1.0 °C 1008.0 hPa NNE 1.9 km/h   51 % 0.0 mm
21:22 8.1 °C -1.2 °C 1008.0 hPa Calm     52 % 0.0 mm
21:27 8.1 °C -1.2 °C 1008.0 hPa NNW 1.9 km/h   52 % 0.0 mm
21:32 8.0 °C -1.3 °C 1008.0 hPa Calm     52 % 0.0 mm
21:37 8.0 °C -1.3 °C 1008.0 hPa Calm     52 % 0.0 mm
21:42 8.0 °C -1.3 °C 1009.0 hPa NNW 1.9 km/h 1.9 km/h 52 % 0.0 mm
21:47 8.0 °C -1.3 °C 1009.0 hPa NNW 2.3 km/h 2.3 km/h 52 % 0.0 mm
21:52 8.0 °C -1.3 °C 1009.0 hPa NNE 1.9 km/h 1.9 km/h 52 % 0.0 mm
21:57 8.0 °C -1.3 °C 1009.0 hPa NNW 2.3 km/h 2.3 km/h 52 % 0.0 mm
22:02 8.0 °C -1.3 °C 1009.0 hPa NNW 1.9 km/h   52 % 0.0 mm
22:07 8.0 °C -1.3 °C 1009.0 hPa Calm     52 % 0.0 mm
22:12 8.0 °C -1.3 °C 1010.0 hPa Calm     52 % 0.0 mm
22:17 8.0 °C -1.3 °C 1010.0 hPa Calm     52 % 0.0 mm
22:22 8.0 °C -1.3 °C 1010.0 hPa Calm     52 % 0.0 mm
22:27 8.0 °C -1.3 °C 1010.0 hPa Calm     52 % 0.0 mm
22:32 8.0 °C -1.3 °C 1010.0 hPa Calm     52 % 0.0 mm
22:37 7.7 °C -1.3 °C 1010.0 hPa NE 1.9 km/h   53 % 0.0 mm
22:42 7.7 °C -1.3 °C 1009.0 hPa NNE 5.6 km/h 5.6 km/h 53 % 0.0 mm
22:47 7.7 °C -1.3 °C 1009.0 hPa NE 5.6 km/h 5.6 km/h 53 % 0.0 mm
22:52 7.7 °C -1.3 °C 1009.0 hPa NNE 3.9 km/h 3.9 km/h 53 % 0.0 mm
22:57 8.0 °C -0.8 °C 1010.0 hPa North 4.7 km/h 4.7 km/h 54 % 0.0 mm
23:02 8.0 °C -0.8 °C 1010.0 hPa NNE 3.7 km/h 3.7 km/h 54 % 0.0 mm
23:07 7.9 °C -0.8 °C 1010.0 hPa NE 1.9 km/h   54 % 0.0 mm
23:12 7.9 °C -0.8 °C 1010.0 hPa Calm     54 % 0.0 mm
23:17 7.8 °C -0.9 °C 1010.0 hPa NE 1.9 km/h   54 % 0.0 mm
23:22 7.8 °C -0.9 °C 1010.0 hPa WSW 1.9 km/h 1.9 km/h 54 % 0.0 mm
23:27 7.8 °C -0.9 °C 1009.0 hPa Calm     54 % 0.0 mm
23:32 7.4 °C -1.3 °C 1009.0 hPa Calm     54 % 0.0 mm
Meteo Sesrovires
Elogis d' Weather Underground - 3.5 mb

Guio original per  Jim McMurry - jmcmurry@mwt.net Adaptat per a la plantilla per  Wim van der Kuil - Leuven-Template.eu

Trobareu la nostra informacio del temps tambe a:

Weather Underground

AWEKAS